Time;durP1;ratioP1;P1;durP2;ratioP2;P2;SDS_P1;SDS_P2;PMS_P1;PMS_P2;Temp;Humidity;BMP_temperature;BMP_pressure;BME280_temperature;BME280_humidity;BME280_pressure;Samples;Min_cycle;Max_cycle;Signal;HPM_P1;HPM_P2
2022/06/08 00:00:56;;;;;;;;;;;;;;;17.90;75.08;100439.91;4980820;28;19922;-87
2022/06/08 00:03:24;;;;;;;;;;;;;;;17.81;75.18;100430.31;5004066;28;20323;-90
2022/06/08 00:05:52;;;;;;;;;;;;;;;17.82;75.21;100421.94;4981935;28;19917;-88
2022/06/08 00:08:25;;;;;;;;;;;;;;;17.78;75.03;100419.81;4994049;28;19936;-87
2022/06/08 00:10:54;;;;;;;;;;;;;;;17.76;75.37;100411.03;4997245;28;19922;-87
2022/06/08 00:13:22;;;;;;;;;;;;;;;17.76;75.32;100420.03;5001624;28;20298;-86
2022/06/08 00:15:50;;;;;;;;;;;;;;;17.78;75.21;100426.09;4993741;28;20093;-87
2022/06/08 00:18:16;;;;;;;;;;;;;;;17.75;74.42;100425.69;4998772;28;19921;-87
2022/06/08 00:20:42;;;;;;;;;;;;;;;17.71;74.69;100417.13;4995074;28;19930;-88
2022/06/08 00:23:09;;;;;;;;;;;;;;;17.65;73.94;100424.25;4991017;28;19922;-88
2022/06/08 00:25:37;;;;;;;;;;;;;;;17.62;73.77;100421.13;5001684;28;19979;-85
2022/06/08 00:28:15;;;;;;;;;;;;;;;17.62;74.01;100415.69;5007143;28;20003;-85
2022/06/08 00:30:41;;;;;;;;;;;;;;;17.55;73.93;100421.13;4999770;28;19913;-87
2022/06/08 00:33:08;;;;;;;;;;;;;;;17.56;73.99;100419.25;5005037;28;19980;-85
2022/06/08 00:35:33;;;;;;;;;;;;;;;17.56;74.48;100427.41;5001768;28;19914;-86
2022/06/08 00:38:03;;;;;;;;;;;;;;;17.52;74.31;100422.41;4991632;28;19914;-86
2022/06/08 00:40:46;;;;;;;;;;;;;;;17.55;74.50;100420.31;5001483;28;19945;-86
2022/06/08 00:43:12;;;;;;;;;;;;;;;17.50;75.39;100418.22;4997584;28;20374;-86
2022/06/08 00:45:53;;;;;;;;;;;;;;;17.50;75.24;100410.91;4993249;28;19918;-85
2022/06/08 00:48:19;;;;;;;;;;;;;;;17.45;75.88;100416.16;4997116;28;19920;-86
2022/06/08 00:50:49;;;;;;;;;;;;;;;17.57;75.38;100418.22;5007840;28;19932;-86
2022/06/08 00:53:16;;;;;;;;;;;;;;;17.58;75.09;100428.84;4970720;28;19971;-85
2022/06/08 00:55:44;;;;;;;;;;;;;;;17.57;75.15;100421.75;4994770;28;19934;-86
2022/06/08 00:58:24;;;;;;;;;;;;;;;17.59;75.13;100410.69;4982646;28;19924;-86
2022/06/08 01:00:49;;;;;;;;;;;;;;;17.54;75.44;100424.09;4995760;28;20456;-85
2022/06/08 01:03:15;;;;;;;;;;;;;;;17.52;75.18;100416.13;4963023;28;19910;-85
2022/06/08 01:06:03;;;;;;;;;;;;;;;17.46;75.86;100412.38;4992342;28;19918;-86
2022/06/08 01:08:39;;;;;;;;;;;;;;;17.52;75.48;100419.69;4993080;28;19944;-87
2022/06/08 01:11:07;;;;;;;;;;;;;;;17.46;75.94;100420.50;4996101;28;19917;-85
2022/06/08 01:13:33;;;;;;;;;;;;;;;17.42;75.85;100427.44;4985722;28;19924;-85
2022/06/08 01:16:05;;;;;;;;;;;;;;;17.41;76.09;100425.75;4977062;28;20000;-86
2022/06/08 01:18:31;;;;;;;;;;;;;;;17.48;75.88;100423.03;4986807;28;20386;-85
2022/06/08 01:21:15;;;;;;;;;;;;;;;17.44;76.19;100422.63;4993876;28;20023;-85
2022/06/08 01:23:40;;;;;;;;;;;;;;;17.43;76.49;100428.28;4975645;28;19918;-85
2022/06/08 01:26:14;;;;;;;;;;;;;;;17.41;76.71;100424.94;4973500;28;20000;-85
2022/06/08 01:28:51;;;;;;;;;;;;;;;17.40;76.48;100421.38;4975915;28;20386;-86
2022/06/08 01:31:21;;;;;;;;;;;;;;;17.40;76.42;100418.66;4996858;28;19918;-85
2022/06/08 01:33:56;;;;;;;;;;;;;;;17.40;76.48;100415.94;4982791;28;19964;-85
2022/06/08 01:36:54;;;;;;;;;;;;;;;17.47;76.33;100419.47;4978995;28;19917;-86
2022/06/08 01:39:35;;;;;;;;;;;;;;;17.39;76.41;100421.59;4972966;28;19913;-85
2022/06/08 01:42:13;;;;;;;;;;;;;;;17.41;76.65;100427.66;5009936;28;19976;-86
2022/06/08 01:44:41;;;;;;;;;;;;;;;17.45;76.06;100420.75;4978736;28;19932;-87
2022/06/08 01:47:14;;;;;;;;;;;;;;;17.35;76.33;100432.06;4979953;28;19917;-85
2022/06/08 01:49:49;;;;;;;;;;;;;;;17.42;76.34;100427.44;4989372;28;19910;-85
2022/06/08 01:52:18;;;;;;;;;;;;;;;17.45;75.91;100420.75;4985103;28;19973;-85
2022/06/08 01:54:47;;;;;;;;;;;;;;;17.47;76.04;100426.81;4969607;28;19910;-85
2022/06/08 01:57:31;;;;;;;;;;;;;;;17.55;75.68;100421.13;4999768;28;19996;-84
2022/06/08 01:59:56;;;;;;;;;;;;;;;17.60;75.61;100423.22;4993024;28;19917;-85
2022/06/08 02:02:25;;;;;;;;;;;;;;;17.61;75.29;100431.16;4982150;28;19924;-85
2022/06/08 02:04:52;;;;;;;;;;;;;;;17.55;75.72;100431.19;4988323;28;19972;-85
2022/06/08 02:07:17;;;;;;;;;;;;;;;17.56;75.70;100432.84;4990139;28;19921;-85
2022/06/08 02:09:43;;;;;;;;;;;;;;;17.56;75.82;100435.56;4994529;28;20076;-85
2022/06/08 02:12:09;;;;;;;;;;;;;;;17.50;75.83;100429.91;4996684;28;20043;-84
2022/06/08 02:15:09;;;;;;;;;;;;;;;17.43;75.98;100442.69;5001724;28;19914;-84
2022/06/08 02:17:41;;;;;;;;;;;;;;;17.49;75.72;100439.13;4924850;29;19922;-85
2022/06/08 02:20:11;;;;;;;;;;;;;;;17.56;75.90;100446.44;4971234;28;19921;-85
2022/06/08 02:22:38;;;;;;;;;;;;;;;17.58;75.52;100450.59;4979655;28;19952;-84
2022/06/08 02:25:14;;;;;;;;;;;;;;;17.54;75.34;100445.81;4982914;28;19945;-83
2022/06/08 02:27:42;;;;;;;;;;;;;;;17.64;75.50;100454.38;4982083;28;20228;-84
2022/06/08 02:30:11;;;;;;;;;;;;;;;17.73;74.68;100455.81;4984440;28;20369;-85
2022/06/08 02:35:55;;;;;;;;;;;;;;;17.85;74.60;100459.56;4984817;28;19928;-86
2022/06/08 02:38:23;;;;;;;;;;;;;;;17.86;74.37;100458.53;4974457;28;19925;-87
2022/06/08 02:40:49;;;;;;;;;;;;;;;17.89;74.25;100454.56;4991125;28;19917;-85
2022/06/08 02:43:16;;;;;;;;;;;;;;;17.98;73.87;100460.56;4983398;28;19953;-84
2022/06/08 02:45:43;;;;;;;;;;;;;;;17.98;73.90;100453.28;4999821;28;19918;-86
2022/06/08 02:48:09;;;;;;;;;;;;;;;18.03;73.91;100460.78;4963061;28;19961;-85
2022/06/08 02:50:35;;;;;;;;;;;;;;;18.07;73.33;100462.00;4993616;28;19917;-85
2022/06/08 02:53:08;;;;;;;;;;;;;;;18.00;73.96;100474.78;4989498;28;19925;-85
2022/06/08 02:55:48;;;;;;;;;;;;;;;18.10;73.41;100472.47;5005365;28;19971;-86
2022/06/08 02:58:49;;;;;;;;;;;;;;;18.05;73.41;100475.84;4996889;28;20389;-85
2022/06/08 03:01:22;;;;;;;;;;;;;;;18.08;73.44;100474.56;4979530;28;19917;-86
2022/06/08 03:03:49;;;;;;;;;;;;;;;18.12;73.15;100475.78;4987529;28;20393;-86
2022/06/08 03:06:20;;;;;;;;;;;;;;;18.12;73.34;100470.34;4977664;28;19964;-85
2022/06/08 03:08:47;;;;;;;;;;;;;;;18.14;73.17;100468.25;4986454;28;19920;-85
2022/06/08 03:11:13;;;;;;;;;;;;;;;18.16;72.99;100460.72;4975639;28;19956;-86
2022/06/08 03:13:41;;;;;;;;;;;;;;;18.16;73.20;100471.59;4991610;28;19914;-86
2022/06/08 03:16:07;;;;;;;;;;;;;;;18.23;72.70;100466.97;4995780;28;20358;-85
2022/06/08 03:18:34;;;;;;;;;;;;;;;18.24;73.28;100470.50;5004012;28;19914;-84
2022/06/08 03:21:00;;;;;;;;;;;;;;;18.24;73.13;100463.22;4984706;28;20903;-85
2022/06/08 03:23:25;;;;;;;;;;;;;;;18.33;72.79;100472.78;4971851;28;19925;-85
2022/06/08 03:25:51;;;;;;;;;;;;;;;18.34;72.80;100469.00;4963733;28;20272;-85
2022/06/08 03:28:16;;;;;;;;;;;;;;;18.39;73.03;100467.53;5007749;28;20416;-85
2022/06/08 03:30:42;;;;;;;;;;;;;;;18.43;72.86;100466.88;4968567;28;19960;-87
2022/06/08 03:33:12;;;;;;;;;;;;;;;18.43;72.35;100471.50;4988776;28;19918;-86
2022/06/08 03:35:38;;;;;;;;;;;;;;;18.48;72.62;100475.22;4997346;28;19964;-86
2022/06/08 03:38:04;;;;;;;;;;;;;;;18.55;72.11;100462.41;4986793;28;20028;-86
2022/06/08 03:40:29;;;;;;;;;;;;;;;18.69;71.82;100465.06;4977032;28;19925;-84
2022/06/08 03:42:57;;;;;;;;;;;;;;;18.70;71.47;100456.66;4982489;28;19945;-88
2022/06/08 03:45:23;;;;;;;;;;;;;;;18.79;71.04;100461.88;4993898;28;19928;-88
2022/06/08 03:47:48;;;;;;;;;;;;;;;18.89;70.82;100464.94;4964586;28;19941;-87
2022/06/08 03:50:15;;;;;;;;;;;;;;;18.98;70.32;100459.00;4971363;28;19921;-87
2022/06/08 03:52:43;;;;;;;;;;;;;;;18.98;70.19;100463.63;4986341;28;19922;-87
2022/06/08 03:55:15;;;;;;;;;;;;;;;19.06;69.56;100465.22;4995066;28;19918;-88
2022/06/08 03:57:44;;;;;;;;;;;;;;;19.08;69.31;100463.97;4999611;28;19917;-86
2022/06/08 04:00:10;;;;;;;;;;;;;;;19.17;69.34;100459.94;4982845;28;19918;-87
2022/06/08 04:02:35;;;;;;;;;;;;;;;19.26;69.27;100456.91;4995733;28;19920;-86
2022/06/08 04:05:04;;;;;;;;;;;;;;;19.36;68.93;100458.06;4988472;28;19949;-85
2022/06/08 04:07:34;;;;;;;;;;;;;;;19.39;69.37;100464.97;4991267;28;20386;-86
2022/06/08 04:10:02;;;;;;;;;;;;;;;19.37;69.58;100462.47;4981843;28;19925;-86
2022/06/08 04:12:37;;;;;;;;;;;;;;;19.39;69.17;100459.53;4993380;28;20342;-88
2022/06/08 04:15:06;;;;;;;;;;;;;;;19.24;69.36;100456.28;4991229;28;20299;-87
2022/06/08 04:17:32;;;;;;;;;;;;;;;19.37;69.25;100457.00;4987059;28;19926;-86
2022/06/08 04:19:59;;;;;;;;;;;;;;;19.36;69.13;100463.53;4973854;28;20037;-86
2022/06/08 04:22:31;;;;;;;;;;;;;;;19.46;69.23;100465.75;5001242;28;19921;-86
2022/06/08 04:25:01;;;;;;;;;;;;;;;19.40;69.57;100469.34;4962792;28;20029;-86
2022/06/08 04:27:28;;;;;;;;;;;;;;;19.48;68.86;100473.69;4989767;28;19950;-87
2022/06/08 04:29:55;;;;;;;;;;;;;;;19.50;68.69;100471.56;4976360;28;19945;-88
2022/06/08 04:32:24;;;;;;;;;;;;;;;19.51;68.47;100471.34;4977138;28;19929;-87
2022/06/08 04:34:57;;;;;;;;;;;;;;;19.71;68.10;100478.53;4979403;28;19922;-82
2022/06/08 04:37:31;;;;;;;;;;;;;;;19.67;67.86;100474.56;4989463;28;20012;-83
2022/06/08 04:39:56;;;;;;;;;;;;;;;19.65;68.47;100479.41;4974499;28;20020;-85
2022/06/08 04:42:23;;;;;;;;;;;;;;;19.55;68.84;100480.75;4976959;28;19948;-87
2022/06/08 04:44:49;;;;;;;;;;;;;;;19.65;68.54;100479.41;4981025;28;19919;-84
2022/06/08 04:47:16;;;;;;;;;;;;;;;19.49;68.74;100481.66;5005442;28;19937;-86
2022/06/08 04:49:43;;;;;;;;;;;;;;;19.53;68.49;100471.97;4989341;28;19918;-83
2022/06/08 04:52:09;;;;;;;;;;;;;;;19.57;68.63;100473.19;4997376;28;20346;-86
2022/06/08 04:54:35;;;;;;;;;;;;;;;19.45;68.62;100480.41;5005458;28;19961;-86
2022/06/08 04:57:03;;;;;;;;;;;;;;;19.62;67.93;100480.69;4992709;28;19914;-86
2022/06/08 04:59:29;;;;;;;;;;;;;;;19.73;66.58;100481.88;4978448;28;19921;-87
2022/06/08 05:02:11;;;;;;;;;;;;;;;19.59;66.84;100492.88;5000607;28;20018;-80
2022/06/08 05:04:38;;;;;;;;;;;;;;;19.79;66.14;100480.97;5002911;28;20318;-82
2022/06/08 05:07:07;;;;;;;;;;;;;;;19.92;66.08;100485.44;4995464;28;20454;-86
2022/06/08 05:09:37;;;;;;;;;;;;;;;20.02;65.75;100475.66;4998370;28;19917;-88
2022/06/08 05:12:12;;;;;;;;;;;;;;;20.00;65.90;100488.72;4996185;28;19961;-87
2022/06/08 05:14:40;;;;;;;;;;;;;;;19.92;66.97;100489.00;5006205;28;19921;-85
2022/06/08 05:17:08;;;;;;;;;;;;;;;20.15;66.49;100484.75;4994433;28;19925;-84
2022/06/08 05:19:35;;;;;;;;;;;;;;;20.36;65.85;100489.72;5003469;28;19970;-86
2022/06/08 05:22:03;;;;;;;;;;;;;;;20.49;65.16;100490.66;4999685;28;19918;-85
2022/06/08 05:24:30;;;;;;;;;;;;;;;20.55;65.67;100489.69;5018730;28;20175;-84
2022/06/08 05:26:59;;;;;;;;;;;;;;;20.65;64.61;100490.84;5021118;28;19917;-83
2022/06/08 05:29:25;;;;;;;;;;;;;;;20.72;64.36;100485.31;4986296;28;20008;-86
2022/06/08 05:31:55;;;;;;;;;;;;;;;20.71;63.59;100483.63;4981641;28;19960;-84
2022/06/08 05:34:21;;;;;;;;;;;;;;;20.73;63.84;100486.97;4993579;28;20029;-82
2022/06/08 05:36:48;;;;;;;;;;;;;;;20.87;62.98;100476.66;5000982;28;20422;-83
2022/06/08 05:39:15;;;;;;;;;;;;;;;20.80;63.11;100481.41;4995982;28;19925;-82
2022/06/08 05:41:41;;;;;;;;;;;;;;;20.81;63.45;100478.44;4995672;28;19968;-84
2022/06/08 05:44:10;;;;;;;;;;;;;;;20.89;63.44;100477.28;4974942;28;19913;-85
2022/06/08 05:46:36;;;;;;;;;;;;;;;20.98;63.54;100483.25;5002243;28;19922;-83
2022/06/08 05:49:03;;;;;;;;;;;;;;;21.04;63.68;100482.28;5004092;28;20329;-84
2022/06/08 05:51:28;;;;;;;;;;;;;;;21.14;62.81;100487.19;4996214;28;19918;-85
2022/06/08 05:54:00;;;;;;;;;;;;;;;21.26;62.76;100480.69;4977627;28;19920;-84
2022/06/08 05:56:29;;;;;;;;;;;;;;;21.40;61.22;100477.72;5003443;28;19908;-84
2022/06/08 05:58:55;;;;;;;;;;;;;;;21.86;60.99;100478.78;4979849;28;20435;-84
2022/06/08 06:01:21;;;;;;;;;;;;;;;22.27;60.74;100476.97;4996435;28;20035;-83
2022/06/08 06:03:47;;;;;;;;;;;;;;;22.82;58.04;100491.97;5002293;28;20351;-86
2022/06/08 06:06:13;;;;;;;;;;;;;;;22.89;56.29;100487.16;4993158;28;19925;-83
2022/06/08 06:08:41;;;;;;;;;;;;;;;23.19;55.36;100489.66;4998813;28;19941;-87
2022/06/08 06:11:13;;;;;;;;;;;;;;;23.46;54.90;100486.22;4993205;28;19932;-87
2022/06/08 06:13:40;;;;;;;;;;;;;;;23.71;53.32;100499.50;4982845;28;19957;-85
2022/06/08 06:16:07;;;;;;;;;;;;;;;24.01;51.71;100485.41;4997070;28;19913;-85
2022/06/08 06:18:33;;;;;;;;;;;;;;;24.02;49.17;100487.06;4966119;28;19921;-84
2022/06/08 06:20:59;;;;;;;;;;;;;;;24.27;48.80;100499.47;4998705;28;19918;-84
2022/06/08 06:23:26;;;;;;;;;;;;;;;24.06;49.71;100501.94;4988452;28;19928;-88
2022/06/08 06:25:51;;;;;;;;;;;;;;;23.88;50.29;100494.88;4995632;28;19917;-90
2022/06/08 06:28:17;;;;;;;;;;;;;;;24.16;49.52;100495.75;4978809;28;19985;-86
2022/06/08 06:30:42;;;;;;;;;;;;;;;24.00;48.67;100500.25;4994252;28;20591;-88
2022/06/08 06:33:10;;;;;;;;;;;;;;;23.76;49.93;100494.97;5001370;28;19921;-87
2022/06/08 06:35:38;;;;;;;;;;;;;;;23.25;50.68;100507.00;4992817;28;19926;-85
2022/06/08 06:38:05;;;;;;;;;;;;;;;23.09;50.92;100500.44;4995478;28;20008;-84
2022/06/08 06:40:30;;;;;;;;;;;;;;;23.05;51.77;100504.75;4994334;28;19925;-85
2022/06/08 06:42:58;;;;;;;;;;;;;;;22.97;51.87;100509.53;4994400;28;19917;-84
2022/06/08 06:45:24;;;;;;;;;;;;;;;23.03;52.30;100498.69;4994214;28;19918;-86
2022/06/08 06:47:49;;;;;;;;;;;;;;;23.14;52.64;100497.78;4988558;28;20302;-83
2022/06/08 06:50:15;;;;;;;;;;;;;;;23.00;52.01;100499.19;5001457;28;19914;-84
2022/06/08 06:52:41;;;;;;;;;;;;;;;22.80;53.05;100505.91;4982737;28;20004;-85
2022/06/08 06:55:06;;;;;;;;;;;;;;;22.57;53.93;100503.28;4994973;28;19913;-86
2022/06/08 06:57:32;;;;;;;;;;;;;;;22.45;54.67;100497.84;5003747;28;19984;-86
2022/06/08 06:59:57;;;;;;;;;;;;;;;22.56;54.39;100505.19;4985890;28;20319;-86
2022/06/08 07:02:22;;;;;;;;;;;;;;;22.47;54.70;100502.00;4994847;28;19969;-87
2022/06/08 07:04:49;;;;;;;;;;;;;;;22.56;54.96;100502.44;4970720;28;19913;-86
2022/06/08 07:07:17;;;;;;;;;;;;;;;22.70;54.73;100501.09;5001551;28;20124;-85
2022/06/08 07:09:43;;;;;;;;;;;;;;;22.84;55.24;100496.13;5000075;28;19913;-85
2022/06/08 07:12:08;;;;;;;;;;;;;;;23.37;54.31;100500.38;4996102;28;19986;-85
2022/06/08 07:14:34;;;;;;;;;;;;;;;23.99;52.19;100501.31;4984833;28;19920;-86
2022/06/08 07:16:59;;;;;;;;;;;;;;;24.34;50.23;100502.84;5002013;28;19922;-86
2022/06/08 07:19:25;;;;;;;;;;;;;;;24.55;50.50;100506.69;5002793;28;19973;-86
2022/06/08 07:21:50;;;;;;;;;;;;;;;24.70;49.46;100489.53;4993066;28;20015;-85
2022/06/08 07:24:19;;;;;;;;;;;;;;;24.63;49.92;100507.09;4994698;28;19918;-86
2022/06/08 07:26:45;;;;;;;;;;;;;;;24.75;49.54;100506.13;4995163;28;20278;-85
2022/06/08 07:29:10;;;;;;;;;;;;;;;24.59;49.28;100502.38;4997779;28;19922;-87
2022/06/08 07:31:38;;;;;;;;;;;;;;;24.53;49.15;100501.47;4997310;28;19922;-86
2022/06/08 07:34:03;;;;;;;;;;;;;;;24.55;49.16;100501.22;4994581;28;19920;-84
2022/06/08 07:36:29;;;;;;;;;;;;;;;24.40;49.92;100502.66;4996084;28;20437;-86
2022/06/08 07:38:56;;;;;;;;;;;;;;;24.21;50.74;100504.91;4983310;28;19936;-85
2022/06/08 07:41:22;;;;;;;;;;;;;;;24.31;50.80;100504.19;5003089;28;19921;-87
2022/06/08 07:43:47;;;;;;;;;;;;;;;24.26;51.30;100506.06;5010619;28;19910;-87
2022/06/08 07:46:13;;;;;;;;;;;;;;;24.29;51.09;100506.38;5005054;28;19918;-87
2022/06/08 07:51:22;;;;;;;;;;;;;;;23.60;52.84;100515.00;5006128;28;19924;-85
2022/06/08 07:53:48;;;;;;;;;;;;;;;23.35;53.39;100510.75;4986840;28;19917;-86
2022/06/08 07:56:13;;;;;;;;;;;;;;;23.25;54.30;100505.13;4995447;28;19977;-87
2022/06/08 07:58:38;;;;;;;;;;;;;;;23.36;53.99;100509.66;5007950;28;19917;-88
2022/06/08 08:01:05;;;;;;;;;;;;;;;23.36;54.34;100515.16;5000987;28;20000;-84
2022/06/08 08:03:33;;;;;;;;;;;;;;;23.43;54.34;100508.69;4994143;28;20382;-88
2022/06/08 08:05:58;;;;;;;;;;;;;;;23.21;55.34;100512.16;4995347;28;19921;-86
2022/06/08 08:08:24;;;;;;;;;;;;;;;23.35;54.50;100513.50;4998147;28;19951;-84
2022/06/08 08:10:49;;;;;;;;;;;;;;;23.25;55.24;100513.34;4998115;28;20018;-85
2022/06/08 08:13:15;;;;;;;;;;;;;;;23.13;55.34;100516.16;4973958;28;19913;-86
2022/06/08 08:15:40;;;;;;;;;;;;;;;22.91;56.43;100513.25;4994502;28;19995;-85
2022/06/08 08:18:06;;;;;;;;;;;;;;;22.96;56.43;100518.81;4996696;28;19910;-84
2022/06/08 08:20:31;;;;;;;;;;;;;;;22.82;56.43;100533.09;4991395;28;19914;-86
2022/06/08 08:23:02;;;;;;;;;;;;;;;22.02;56.27;100530.06;4977666;28;19921;-88
2022/06/08 08:25:27;;;;;;;;;;;;;;;21.38;59.91;100531.81;5003825;28;19920;-89
2022/06/08 08:27:55;;;;;;;;;;;;;;;21.16;60.50;100523.31;4991969;28;20007;-91
2022/06/08 08:30:22;;;;;;;;;;;;;;;21.05;62.87;100527.69;4973802;28;20319;-90
2022/06/08 08:32:48;;;;;;;;;;;;;;;20.86;63.88;100525.03;4995540;28;19921;-87
2022/06/08 08:35:15;;;;;;;;;;;;;;;20.81;64.78;100527.63;4988270;28;19917;-88
2022/06/08 08:37:40;;;;;;;;;;;;;;;20.82;64.85;100532.00;5007858;28;19940;-86
2022/06/08 08:40:06;;;;;;;;;;;;;;;20.85;66.47;100523.34;4997028;28;19914;-88
2022/06/08 08:42:31;;;;;;;;;;;;;;;20.89;66.74;100520.16;4991554;28;20020;-86
2022/06/08 08:44:58;;;;;;;;;;;;;;;21.10;66.68;100527.84;4958185;28;19909;-87
2022/06/08 08:47:24;;;;;;;;;;;;;;;21.11;66.48;100517.72;4990633;28;20359;-85
2022/06/08 08:49:58;;;;;;;;;;;;;;;21.38;68.73;100524.44;4997575;28;19914;-86
2022/06/08 08:52:42;;;;;;;;;;;;;;;21.62;66.00;100522.59;5002835;28;19920;-87
2022/06/08 08:55:10;;;;;;;;;;;;;;;21.83;66.25;100520.31;4994446;28;19968;-87
2022/06/08 08:57:41;;;;;;;;;;;;;;;21.94;63.04;100519.50;4996304;28;19946;-85
2022/06/08 09:00:20;;;;;;;;;;;;;;;21.96;64.45;100522.81;5004649;28;19913;-84
2022/06/08 09:05:32;;;;;;;;;;;;;;;21.75;64.47;100521.53;4990835;28;20019;-86
2022/06/08 09:07:58;;;;;;;;;;;;;;;21.58;64.42;100521.38;4981433;28;19913;-86
2022/06/08 09:10:24;;;;;;;;;;;;;;;21.46;63.80;100531.50;4990110;28;19946;-86
2022/06/08 09:12:50;;;;;;;;;;;;;;;21.32;64.96;100532.75;4978270;28;19995;-86
2022/06/08 09:15:16;;;;;;;;;;;;;;;21.31;66.57;100525.63;4990009;28;20024;-85
2022/06/08 09:17:57;;;;;;;;;;;;;;;21.26;68.03;100527.16;4974397;28;19917;-83
2022/06/08 09:20:23;;;;;;;;;;;;;;;21.25;67.28;100532.84;4988435;28;19909;-85
2022/06/08 09:22:52;;;;;;;;;;;;;;;21.22;68.30;100539.63;4951369;28;1307624;-85
2022/06/08 09:25:30;;;;;;;;;;;;;;;21.02;66.62;100541.81;4993689;28;19917;-86
2022/06/08 09:27:57;;;;;;;;;;;;;;;20.92;68.29;100544.28;4974514;28;19918;-88
2022/06/08 09:30:26;;;;;;;;;;;;;;;20.68;69.01;100546.09;4996828;28;19920;-84
2022/06/08 09:33:17;;;;;;;;;;;;;;;20.21;69.79;100555.66;4987330;28;19921;-85
2022/06/08 09:35:50;;;;;;;;;;;;;;;19.89;72.11;100554.94;4989454;28;19901;-87
2022/06/08 09:38:15;;;;;;;;;;;;;;;19.63;72.59;100558.72;4983544;28;20347;-89
2022/06/08 09:40:41;;;;;;;;;;;;;;;19.07;72.45;100559.56;4996278;28;19997;-90
2022/06/08 09:43:12;;;;;;;;;;;;;;;18.28;70.53;100565.09;4995710;28;20398;-87
2022/06/08 09:45:43;;;;;;;;;;;;;;;17.84;70.55;100563.09;4994260;28;19923;-86
2022/06/08 09:51:26;;;;;;;;;;;;;;;17.16;73.60;100566.00;4999910;28;19935;-90
2022/06/08 09:54:15;;;;;;;;;;;;;;;17.05;74.48;100570.16;4972206;28;19987;-87
2022/06/08 09:57:10;;;;;;;;;;;;;;;16.86;74.96;100560.94;5000347;28;19921;-90
2022/06/08 09:59:46;;;;;;;;;;;;;;;16.83;77.04;100559.47;4989220;28;19989;-87
2022/06/08 10:02:12;;;;;;;;;;;;;;;16.72;77.14;100559.19;5007187;28;19941;-88
2022/06/08 10:04:52;;;;;;;;;;;;;;;16.88;77.70;100548.81;4996320;28;19918;-86
2022/06/08 10:07:19;;;;;;;;;;;;;;;16.92;76.96;100541.09;4974553;28;19921;-88
2022/06/08 10:09:51;;;;;;;;;;;;;;;16.92;76.31;100541.09;4986590;28;20100;-90
2022/06/08 10:12:28;;;;;;;;;;;;;;;16.98;76.13;100540.28;4991554;28;19917;-91
2022/06/08 10:15:03;;;;;;;;;;;;;;;16.96;75.04;100538.81;4983216;28;19929;-92
2022/06/08 10:17:39;;;;;;;;;;;;;;;17.22;75.62;100535.28;5014032;28;20401;-91
2022/06/08 10:20:26;;;;;;;;;;;;;;;17.27;74.81;100532.78;4982152;28;19917;-91
2022/06/08 10:23:15;;;;;;;;;;;;;;;17.54;74.37;100522.75;4997150;28;19925;-91
2022/06/08 10:25:46;;;;;;;;;;;;;;;17.90;75.72;100524.19;4983361;28;20309;-92
2022/06/08 10:28:30;;;;;;;;;;;;;;;18.03;75.48;100526.06;4961628;28;19932;-89
2022/06/08 10:31:29;;;;;;;;;;;;;;;18.24;73.91;100528.50;4978308;28;19918;-88
2022/06/08 10:34:21;;;;;;;;;;;;;;;18.49;71.65;100525.06;4990152;28;19921;-90
2022/06/08 10:36:48;;;;;;;;;;;;;;;18.60;69.30;100523.53;4993442;28;20453;-88
2022/06/08 10:39:13;;;;;;;;;;;;;;;18.94;69.82;100525.03;5009250;28;19940;-88
2022/06/08 10:44:44;;;;;;;;;;;;;;;19.47;69.58;100513.75;4999473;28;19920;-90
2022/06/08 10:47:21;;;;;;;;;;;;;;;19.64;64.88;100510.44;5003512;28;19922;-92
2022/06/08 10:49:47;;;;;;;;;;;;;;;19.90;65.07;100515.69;4993960;28;20382;-92
2022/06/08 10:52:34;;;;;;;;;;;;;;;20.14;65.11;100511.22;5016489;28;19924;-88
2022/06/08 10:55:20;;;;;;;;;;;;;;;20.43;64.31;100517.78;4967880;28;19925;-88
2022/06/08 10:57:56;;;;;;;;;;;;;;;20.71;64.21;100513.69;5011010;28;20043;-89
2022/06/08 11:00:26;;;;;;;;;;;;;;;21.09;62.10;100507.00;4969298;28;20322;-89
2022/06/08 11:03:01;;;;;;;;;;;;;;;21.37;60.73;100502.78;4983886;28;19921;-91
2022/06/08 11:05:39;;;;;;;;;;;;;;;21.76;59.61;100505.94;4998335;28;20416;-87
2022/06/08 11:08:08;;;;;;;;;;;;;;;21.89;60.54;100505.66;4996262;28;19924;-90
2022/06/08 11:11:00;;;;;;;;;;;;;;;22.17;61.07;100501.34;4988479;28;20317;-88
2022/06/08 11:13:28;;;;;;;;;;;;;;;22.42;60.78;100510.13;4996039;28;19918;-89
2022/06/08 11:16:13;;;;;;;;;;;;;;;22.64;60.35;100503.97;4991690;28;19976;-86
2022/06/08 11:18:42;;;;;;;;;;;;;;;22.91;59.29;100507.78;5007452;28;19985;-88
2022/06/08 11:21:14;;;;;;;;;;;;;;;23.16;56.38;100501.94;4995618;28;19917;-88
2022/06/08 11:24:21;;;;;;;;;;;;;;;23.41;57.14;100491.63;4990643;28;20342;-84
2022/06/08 11:27:14;;;;;;;;;;;;;;;23.68;56.39;100489.88;4954699;28;19973;-92
2022/06/08 11:29:46;;;;;;;;;;;;;;;23.80;56.42;100487.88;4915369;29;20002;-86
2022/06/08 11:32:30;;;;;;;;;;;;;;;24.07;56.28;100484.41;4990124;28;19958;-86
2022/06/08 11:35:03;;;;;;;;;;;;;;;23.90;55.83;100487.19;4994641;28;19954;-86
2022/06/08 11:37:35;;;;;;;;;;;;;;;23.89;55.79;100495.69;4997016;28;19932;-87
2022/06/08 11:40:00;;;;;;;;;;;;;;;24.01;56.09;100483.50;4985659;28;19926;-88
2022/06/08 11:42:27;;;;;;;;;;;;;;;24.01;55.46;100488.16;4994850;28;19926;-86
2022/06/08 11:44:55;;;;;;;;;;;;;;;23.77;54.57;100488.38;4974184;28;20015;-89
2022/06/08 11:47:36;;;;;;;;;;;;;;;23.48;56.05;100484.06;4978765;28;19921;-86
2022/06/08 11:50:16;;;;;;;;;;;;;;;23.59;57.04;100486.72;4976632;28;19918;-85
2022/06/08 11:52:44;;;;;;;;;;;;;;;23.30;56.23;100480.50;4995773;28;19937;-88
2022/06/08 11:55:39;;;;;;;;;;;;;;;23.24;57.11;100483.41;5005570;28;19928;-87
2022/06/08 11:58:10;;;;;;;;;;;;;;;23.20;57.33;100483.06;5001799;28;19925;-85
2022/06/08 12:00:53;;;;;;;;;;;;;;;23.28;58.69;100474.44;4997476;28;19913;-85
2022/06/08 12:03:34;;;;;;;;;;;;;;;22.89;58.56;100482.50;4998712;28;19921;-89
2022/06/08 12:06:12;;;;;;;;;;;;;;;23.01;58.02;100477.00;4982095;28;19918;-91
2022/06/08 12:08:40;;;;;;;;;;;;;;;23.09;57.64;100475.78;4997667;28;19929;-89
2022/06/08 12:11:08;;;;;;;;;;;;;;;23.16;58.62;100469.03;4997774;28;19918;-90
2022/06/08 12:13:57;;;;;;;;;;;;;;;23.00;58.49;100472.59;4999422;28;19921;-92
2022/06/08 12:16:30;;;;;;;;;;;;;;;22.86;58.48;100463.00;5006107;28;19943;-93
2022/06/08 12:19:14;;;;;;;;;;;;;;;22.87;59.77;100473.69;4999819;28;19918;-95
2022/06/08 12:21:40;;;;;;;;;;;;;;;22.64;60.09;100463.72;4986583;28;20000;-95
2022/06/08 12:24:25;;;;;;;;;;;;;;;22.89;59.96;100457.84;4980473;28;19922;-91
2022/06/08 12:26:54;;;;;;;;;;;;;;;22.66;59.49;100456.06;5003866;28;19917;-94
2022/06/08 12:29:42;;;;;;;;;;;;;;;22.57;59.60;100452.09;4990861;28;19908;-96
2022/06/08 12:32:42;;;;;;;;;;;;;;;22.79;59.51;100446.72;4992598;28;19917;-94
2022/06/08 12:35:38;;;;;;;;;;;;;;;22.68;59.96;100447.59;5000225;28;19932;-95
2022/06/08 12:38:22;;;;;;;;;;;;;;;22.92;59.95;100440.06;5009025;28;19944;-94
2022/06/08 12:41:25;;;;;;;;;;;;;;;23.19;59.25;100432.06;4935369;29;19919;-95
2022/06/08 12:43:57;;;;;;;;;;;;;;;23.39;57.43;100429.63;4932211;29;20042;-92
2022/06/08 12:46:41;;;;;;;;;;;;;;;23.70;57.95;100426.50;4924792;28;19941;-91
2022/06/08 12:49:19;;;;;;;;;;;;;;;24.11;56.52;100422.38;4936994;28;20003;-90
2022/06/08 12:52:09;;;;;;;;;;;;;;;24.46;55.27;100417.53;4959109;28;19957;-91
2022/06/08 12:54:38;;;;;;;;;;;;;;;24.61;53.64;100410.31;4967114;28;19950;-95
2022/06/08 12:57:16;;;;;;;;;;;;;;;24.92;52.77;100409.75;4969730;28;19922;-94
2022/06/08 12:59:53;;;;;;;;;;;;;;;24.99;52.15;100405.69;4949300;28;19918;-95
2022/06/08 13:02:39;;;;;;;;;;;;;;;;;;;;;
2022/06/08 13:05:45;;;;;;;;;;;;;;;24.89;47.90;100396.53;4971549;28;19945;-95
2022/06/08 13:08:19;;;;;;;;;;;;;;;24.60;45.77;100385.84;4956602;28;19996;-93
2022/06/08 13:10:46;;;;;;;;;;;;;;;24.56;47.54;100388.28;4929372;28;19960;-92
2022/06/08 13:13:18;;;;;;;;;;;;;;;24.81;47.60;100395.91;4981527;28;19909;-94